»·PEaware :: N664NT KEWR-KJFK

N664NT :: KEWR-KJFK

FLIGHT INFORMATION

Flight Status: Arrived
Operator: Privately registered:
United States
More flights under this callsign
Pilot: Anonymous 328 (328)
Aircraft: Unknown
(GA7C)
More flights by this aircraft type
Origin: KEWR Newark Intl
United States
Destination: KJFK Kennedy Intl
United States
More flights between these airports :: More routes between these airports
Route: EWR4 BREZY V39 CMK V419 JUDDS NELIE MAD V1 DPK
File this flight plan on PilotEdge
Remarks:
Altitude:
(Current/Filed)
11,000ft
Speed:
(Current/Filed)
0kts
Departed: 09-Nov-22 06:30 AM
Arrived: 09-Nov-22 07:16 AM
Distance/Time
Traveled:
19nm/0:45
Distance/Time
To Go:
Arrived

Flight Plot

Page will automatically refresh every two minutes.

Flight plan parsing failed; only flown route is shown


Map Options




Map Legend


Flown Route
Filed Route
Departure Airport
Arrival Airport
Navaid (VOR, NDB)
Fix

Horizontal Profiles

Position Reports

Time Latitude Longitude Heading Altitude Ground
Speed
09-Nov-22 06:21 40.681835 -74.176941 205 19ft 17kts
09-Nov-22 06:22 40.677731 -74.179565 206 19ft 15kts
09-Nov-22 06:23 40.676125 -74.180443 160 19ft 0kts
09-Nov-22 06:24 40.676117 -74.180435 160 19ft 0kts
09-Nov-22 06:25 40.676117 -74.180435 160 19ft 0kts
09-Nov-22 06:26 40.676117 -74.180435 160 19ft 0kts
09-Nov-22 06:27 40.676117 -74.180435 160 19ft 0kts
09-Nov-22 06:28 40.675938 -74.179100 25 19ft 0kts
09-Nov-22 06:29 40.707287 -74.155785 44 1823ft 215kts
09-Nov-22 06:30 40.750675 -74.093887 46 4076ft 257kts
09-Nov-22 06:31 40.815144 -74.101448 302 8021ft 280kts
09-Nov-22 06:32 40.853378 -74.184044 351 9010ft 284kts
09-Nov-22 06:33 40.932312 -74.172462 7 10068ft 288kts
09-Nov-22 06:34 41.023643 -74.157120 7 11008ft 350kts
09-Nov-22 06:35 41.120331 -74.140305 14 11005ft 350kts
09-Nov-22 06:36 41.177998 -74.045418 73 11009ft 350kts
09-Nov-22 06:37 41.205513 -73.921555 73 11007ft 350kts
09-Nov-22 06:38 41.232986 -73.797028 73 11004ft 357kts
09-Nov-22 06:39 41.262642 -73.661621 73 11008ft 384kts
09-Nov-22 06:40 41.312164 -73.538956 44 11006ft 384kts
09-Nov-22 06:41 41.387840 -73.438431 45 11147ft 380kts
09-Nov-22 06:42 41.462528 -73.336670 46 10864ft 388kts
09-Nov-22 06:43 41.536221 -73.233673 46 11031ft 382kts
09-Nov-22 06:44 41.610371 -73.131241 43 11030ft 383kts
09-Nov-22 06:46 41.688381 -73.033676 44 11006ft 384kts
09-Nov-22 06:47 41.762756 -72.933395 45 9859ft 355kts
09-Nov-22 06:48 41.820530 -72.854424 45 8517ft 282kts
09-Nov-22 06:49 41.870708 -72.773529 45 7551ft 284kts
09-Nov-22 06:50 41.924137 -72.699509 45 5141ft 268kts
09-Nov-22 06:51 41.931446 -72.616432 144 2753ft 258kts
09-Nov-22 06:52 41.868980 -72.622070 221 2004ft 257kts
09-Nov-22 06:53 41.814373 -72.684196 223 2003ft 257kts
09-Nov-22 06:54 41.763065 -72.750763 223 2000ft 257kts
09-Nov-22 06:55 41.712616 -72.818855 226 2001ft 257kts
09-Nov-22 06:56 41.665161 -72.890610 218 4259ft 260kts
09-Nov-22 06:57 41.593666 -72.905159 188 8456ft 278kts
09-Nov-22 06:58 41.513950 -72.931366 194 11655ft 336kts
09-Nov-22 06:59 41.418556 -72.963394 194 12107ft 352kts
09-Nov-22 07:00 41.331436 -72.992691 194 10745ft 293kts
09-Nov-22 07:01 41.253925 -73.018784 194 8689ft 282kts
09-Nov-22 07:02 41.178810 -73.044106 194 6683ft 273kts
09-Nov-22 07:03 41.110317 -73.085129 207 6000ft 271kts
09-Nov-22 07:04 41.044636 -73.133804 223 5588ft 267kts
09-Nov-22 07:05 40.999504 -73.211700 233 4021ft 264kts
09-Nov-22 07:06 40.955418 -73.289352 233 4000ft 264kts
09-Nov-22 07:07 40.911133 -73.367218 233 4000ft 264kts
09-Nov-22 07:07 40.874420 -73.431564 232 3427ft 262kts
09-Nov-22 07:08 40.830658 -73.508148 232 3000ft 253kts
09-Nov-22 07:10 40.787842 -73.583015 232 3002ft 207kts
09-Nov-22 07:11 40.756317 -73.635391 220 2567ft 176kts
09-Nov-22 07:12 40.720829 -73.674400 219 1983ft 162kts
09-Nov-22 07:12 40.691586 -73.706703 219 1268ft 164kts
09-Nov-22 07:13 40.657852 -73.744606 214 326ft 156kts
09-Nov-22 07:14 40.629982 -73.766800 211 20ft 42kts
09-Nov-22 07:16 40.625809 -73.771660 277 20ft 0kts
09-Nov-22 07:17 40.625809 -73.771660 277 20ft 0kts
09-Nov-22 07:17 40.625809 -73.771660 277 20ft 0kts
09-Nov-22 07:18 40.625809 -73.771660 277 20ft 0kts

Navigation Log

Ident Type
Flight plan parsing failed, navigation log unavailable